Flugplatz Nabern/Teck

EDTN · Baden-Württemberg, Duitsland

METAR historie EDTN · Flugplatz Nabern/Teck

Hieronder zie je METAR's van de afgelopen dagen. Kies een jaar om door oudere METAR's te bladeren, vanaf het jaar 2007.

19 april 2024

Tijd Code Weer Temp. Zicht Plafond Wind METAR/SPECI
22:50
V
4 °C 10 km+ 3.100 ft 250° 250° 9 kt METAR EDDS 192050Z AUTO 25009KT 220V280 9999 SCT021 BKN031 BKN040 04/03 Q1011
22:20
V
4 °C 10 km+ 3.100 ft 250° 250° 11 kt METAR EDDS 192020Z AUTO 25011KT 9999 -RA SCT021 BKN031 OVC038 04/02 Q1010 RERA
21:50
V
4 °C 10 km+ 3.500 ft 240° 240° 7 kt METAR EDDS 191950Z AUTO 24007KT 190V270 9999 -RA FEW017 BKN035 BKN045 04/02 Q1010 RERA NOSIG
21:20
M
3 °C 10 km+ 2.500 ft 250° 250° 8 kt METAR EDDS 191920Z AUTO 25008KT 220V290 9999 RA FEW006 BKN025 OVC030 03/02 Q1010 BECMG NSW
20:50
M
4 °C 6 km 2.500 ft 320° 320° 15 - 25 kt METAR EDDS 191850Z AUTO 32015G25KT 280V340 6000 RA FEW007 BKN025 OVC035 04/02 Q1010 TEMPO NSW
20:20
V
5 °C 10 km+ 3.900 ft 230° 230° 10 kt METAR EDDS 191820Z AUTO 23010KT 160V270 9999 BKN039 05/03 Q1009 TEMPO 29020G30KT TSRA
19:50
V
5 °C 10 km+ 3.100 ft 230° 230° 11 - 23 kt METAR EDDS 191750Z AUTO 23011G23KT 200V270 9999 SCT024 BKN031 BKN038 05/03 Q1009 NOSIG
19:20
M
5 °C 10 km+ 2.500 ft 240° 240° 14 kt METAR EDDS 191720Z AUTO 24014KT 200V290 9999 SCT019 BKN025 BKN031 05/02 Q1009 TEMPO SHRA
18:50
V
5 °C 10 km+ 3.400 ft 240° 240° 16 kt METAR EDDS 191650Z AUTO 24016KT 9999 -RA SCT020 BKN034 BKN045 05/03 Q1008 NOSIG
18:20
V
5 °C 10 km+ 3.500 ft 240° 240° 15 - 25 kt METAR EDDS 191620Z AUTO 24015G25KT 200V270 9999 -RA FEW016 BKN035 OVC045 05/03 Q1008 RERA NOSIG
17:50
V
5 °C 10 km+ 3.800 ft 230° 230° 16 - 27 kt METAR EDDS 191550Z AUTO 23016G27KT 180V280 9999 -RA FEW017 BKN038 OVC045 05/02 Q1008 NOSIG
17:20
V
5 °C 10 km+ 3.400 ft Var Var 9 kt METAR EDDS 191520Z AUTO VRB09KT 9999 -RA SCT017 BKN034 BKN041 05/03 Q1009 NOSIG
16:50
M
5 °C 10 km+ 2.900 ft 230° 230° 12 - 23 kt METAR EDDS 191450Z AUTO 23012G23KT 150V270 9999 -RA SCT017 BKN029 OVC036 05/03 Q1009 NOSIG
16:20
M
5 °C 10 km+ 1.700 ft 220° 220° 11 - 21 kt METAR EDDS 191420Z AUTO 22011G21KT 140V280 9999 -RA BKN017 BKN026 OVC031 05/03 Q1009 NOSIG
15:50
M
5 °C 10 km+ 2.800 ft 230° 230° 11 kt METAR EDDS 191350Z AUTO 23011KT 180V320 9999 -RA SCT017 BKN028 05/03 Q1010 RERA NOSIG
15:20
V
5 °C 10 km+ 3.700 ft 230° 230° 14 kt METAR EDDS 191320Z AUTO 23014KT 160V280 9999 -RA SCT017 SCT028 BKN037 05/03 Q1010 NOSIG
14:50
M
5 °C 10 km+ 2.400 ft 230° 230° 12 - 24 kt METAR EDDS 191250Z AUTO 23012G24KT 180V290 9999 -RA SCT017 BKN024 BKN028 05/03 Q1011 NOSIG
14:20
M
5 °C 10 km+ 2.200 ft 230° 230° 16 - 26 kt METAR EDDS 191220Z AUTO 23016G26KT 190V300 9999 -RA SCT016 BKN022 05/02 Q1011 RERA NOSIG
13:50
M
5 °C 10 km+ 2.400 ft 230° 230° 14 - 28 kt METAR EDDS 191150Z AUTO 23014G28KT 180V270 9999 -RA FEW007 SCT017 OVC024 05/02 Q1011 RERA NOSIG
13:20
M
5 °C 10 km+ 2.200 ft 230° 230° 15 - 29 kt METAR EDDS 191120Z AUTO 23015G29KT 160V270 9999 -RADZ SCT017 BKN022 OVC027 05/02 Q1011 NOSIG
12:50
M
5 °C 10 km+ 1.700 ft 220° 220° 12 - 24 kt METAR EDDS 191050Z AUTO 22012G24KT 170V290 9999 -RA BKN017 BKN023 BKN028 05/02 Q1011 NOSIG
12:20
M
5 °C 10 km+ 2.400 ft Var Var 11 - 26 kt METAR EDDS 191020Z AUTO VRB11G26KT 9999 -RA SCT016 BKN024 OVC028 05/02 Q1012 NOSIG
11:50
M
5 °C 10 km+ 2.200 ft 220° 220° 13 - 26 kt METAR EDDS 190950Z AUTO 22013G26KT 140V260 9999 -RA SCT015 BKN022 OVC027 05/02 Q1013
11:20
M
5 °C 10 km+ 2.500 ft 220° 220° 13 - 24 kt METAR EDDS 190920Z AUTO 22013G24KT 160V260 9999 -RA SCT017 OVC025 05/02 Q1013 NOSIG
10:50
V
5 °C 10 km+ 3.100 ft 230° 230° 11 - 24 kt METAR EDDS 190850Z AUTO 23011G24KT 170V290 9999 -RA SCT018 BKN031 OVC038 05/02 Q1014 NOSIG
10:20
M
6 °C 10 km+ 1.900 ft 220° 220° 10 - 20 kt METAR EDDS 190820Z AUTO 22010G20KT 160V270 9999 -RA BKN019 BKN031 BKN046 06/02 Q1014
09:50
M
6 °C 10 km+ 1.900 ft 230° 230° 9 kt METAR EDDS 190750Z AUTO 23009KT 170V280 9999 -RADZ BKN019 BKN027 06/02 Q1015 BECMG 23015G25KT
09:20
V
6 °C 10 km+ - 220° 220° 10 kt METAR EDDS 190720Z AUTO 22010KT 150V300 9999 SCT023 06/02 Q1015 BECMG 24015G25KT
08:50
V
6 °C 10 km+ - 240° 240° 11 kt METAR EDDS 190650Z AUTO 24011KT 200V270 CAVOK 06/01 Q1015 BECMG 24015G25KT
08:20
V
5 °C 10 km+ - 230° 230° 9 kt METAR EDDS 190620Z AUTO 23009KT 180V270 9999 FEW038 05/01 Q1016 BECMG 24015G25KT
07:50
V
5 °C 10 km+ - 230° 230° 10 kt METAR EDDS 190550Z AUTO 23010KT 180V280 CAVOK 05/01 Q1016 NOSIG
07:20
V
4 °C 10 km+ - 230° 230° 8 kt METAR EDDS 190520Z AUTO 23008KT 150V280 CAVOK 04/01 Q1016 NOSIG
06:50
V
4 °C 10 km+ - 220° 220° 5 kt METAR EDDS 190450Z AUTO 22005KT 140V290 CAVOK 04/01 Q1016 NOSIG
06:20
V
4 °C 10 km+ - 230° 230° 5 kt METAR EDDS 190420Z AUTO 23005KT 160V270 CAVOK 04/01 Q1017 NOSIG
05:50
V
4 °C 10 km+ - 230° 230° 6 kt METAR EDDS 190350Z AUTO 23006KT 180V290 CAVOK 04/01 Q1017
05:20
V
4 °C 10 km+ - 230° 230° 6 kt METAR EDDS 190320Z AUTO 23006KT 150V290 CAVOK 04/01 Q1017
04:50
V
4 °C 10 km+ - 240° 240° 7 kt METAR EDDS 190250Z AUTO 24007KT 200V280 CAVOK 04/01 Q1017
04:20
V
3 °C 10 km+ - 250° 250° 5 kt METAR EDDS 190220Z AUTO 25005KT 210V300 CAVOK 03/01 Q1018
03:50
V
4 °C 10 km+ - Var Var 1 kt METAR EDDS 190150Z AUTO VRB01KT CAVOK 04/01 Q1018
03:20
V
4 °C 10 km+ - Var Var 2 kt METAR EDDS 190120Z AUTO VRB02KT CAVOK 04/01 Q1018
02:50
V
4 °C 10 km+ - Var Var 2 kt METAR EDDS 190050Z AUTO VRB02KT CAVOK 04/01 Q1018
02:20
V
4 °C 10 km+ - Var Var 2 kt METAR EDDS 190020Z AUTO VRB02KT CAVOK 04/01 Q1018
01:50
V
4 °C 10 km+ - Var Var 2 kt METAR EDDS 182350Z AUTO VRB02KT 9999 SCT048 04/01 Q1019
01:20
V
4 °C 10 km+ 4.600 ft Var Var 2 kt METAR EDDS 182320Z AUTO VRB02KT 9999 FEW038 BKN046 04/02 Q1019
00:50
V
4 °C 10 km+ 3.900 ft 240° 240° 4 kt METAR EDDS 182250Z AUTO 24004KT 210V270 9999 -RA BKN039 04/01 Q1019
00:20
V
4 °C 10 km+ - Var Var 1 kt METAR EDDS 182220Z AUTO VRB01KT 9999 SCT049 04/01 Q1019

18 april 2024

Tijd Code Weer Temp. Zicht Plafond Wind METAR/SPECI
23:50
V
4 °C 10 km+ - 220° 220° 3 kt METAR EDDS 182150Z AUTO 22003KT 190V260 9999 FEW049 04/01 Q1019
23:20
V
4 °C 10 km+ - Var Var 1 kt METAR EDDS 182120Z AUTO VRB01KT CAVOK 04/01 Q1019
22:50
V
4 °C 10 km+ - 230° 230° 3 kt METAR EDDS 182050Z AUTO 23003KT 190V260 CAVOK 04/01 Q1019
22:20
V
4 °C 10 km+ - Var Var 2 kt METAR EDDS 182020Z AUTO VRB02KT 9999 FEW047 04/02 Q1019
21:50
V
4 °C 10 km+ - Var Var 2 kt METAR EDDS 181950Z AUTO VRB02KT 9999 SCT046 04/02 Q1019 NOSIG
21:20
V
4 °C 10 km+ - 230° 230° 4 kt METAR EDDS 181920Z AUTO 23004KT CAVOK 04/01 Q1019 NOSIG
20:50
V
4 °C 10 km+ - 250° 250° 5 kt METAR EDDS 181850Z AUTO 25005KT CAVOK 04/01 Q1019 NOSIG
20:20
V
5 °C 10 km+ - 280° 280° 5 kt METAR EDDS 181820Z AUTO 28005KT CAVOK 05/02 Q1018 NOSIG
19:50
V
6 °C 10 km+ - 290° 290° 5 kt METAR EDDS 181750Z AUTO 29005KT CAVOK 06/02 Q1018 NOSIG
19:20
V
7 °C 10 km+ - 290° 290° 6 kt METAR EDDS 181720Z AUTO 29006KT CAVOK 07/03 Q1018 TEMPO SHRA
18:50
V
6 °C 10 km+ - 300° 300° 5 kt METAR EDDS 181650Z AUTO 30005KT 9999 FEW045 06/03 Q1017 TEMPO SHRA
18:20
V
6 °C 10 km+ - 310° 310° 7 kt METAR EDDS 181620Z AUTO 31007KT 9999 -SHRA FEW030 SCT047 FEW///CB 06/03 Q1017 TEMPO SHRA
17:50
V
6 °C 10 km+ - 350° 350° 5 kt METAR EDDS 181550Z AUTO 35005KT 300V030 9999 FEW026 SCT040 06/04 Q1017 TEMPO SHRA
17:20
V
5 °C 10 km+ 3.300 ft 350° 350° 13 kt METAR EDDS 181520Z AUTO 35013KT 9999 -SHRA FEW019 SCT026 BKN033 FEW///CB 05/03 Q1017 RESHRA TEMPO SHRA
16:50
M
9 °C 10 km+ 2.500 ft 340° 340° 6 kt METAR EDDS 181450Z AUTO 34006KT 290V040 9999 SHRA BKN025 BKN040 FEW///CB 09/04 Q1016 TEMPO SHRA
16:20
V
9 °C 10 km+ - 330° 330° 5 kt METAR EDDS 181420Z AUTO 33005KT 280V020 9999 FEW024 09/03 Q1016 TEMPO SHRA
15:50
V
8 °C 10 km+ - 260° 260° 7 kt METAR EDDS 181350Z AUTO 26007KT 220V290 9999 FEW016 08/03 Q1016 TEMPO SHRA
15:20
V
7 °C 10 km+ - 240° 240° 6 kt METAR EDDS 181320Z AUTO 24006KT 180V270 9999 VCSH FEW031 SCT049 FEW///CB 07/04 Q1016 TEMPO SHRA
14:50
M
4 °C 10 km+ 2.500 ft 260° 260° 7 kt METAR EDDS 181250Z AUTO 26007KT 9999 -SHRA FEW006 BKN025 OVC031 FEW///CB 04/02 Q1017 RESHRA TEMPO SHRA
14:20
M
5 °C 10 km+ 2.000 ft 350° 350° 10 - 21 kt METAR EDDS 181220Z AUTO 35010G21KT 290V040 9999 SHRA SCT015 BKN020 BKN039 FEW///CB 05/02 Q1016 TEMPO SHRA
13:50
V
7 °C 10 km+ 4.800 ft 280° 280° 6 kt METAR EDDS 181150Z AUTO 28006KT 240V320 9999 FEW013 SCT034 BKN048 07/03 Q1016 TEMPO SHRA
13:20
M
4 °C 10 km+ 2.700 ft 320° 320° 6 kt METAR EDDS 181120Z AUTO 32006KT 280V350 9999 -RA FEW010 BKN027 OVC033 04/02 Q1016 RERA TEMPO SHRA
12:50
M
4 °C 10 km+ 2.300 ft 340° 340° 18 kt METAR EDDS 181050Z AUTO 34018KT 9999 -SHRA FEW017 BKN023 BKN031 FEW///TCU 04/01 Q1016 RESHRA TEMPO SHRA
12:20
V
7 °C 10 km+ - Var Var 3 kt METAR EDDS 181020Z AUTO VRB03KT 9999 FEW014 SCT026 07/02 Q1015
11:50
V
6 °C 10 km+ 4.000 ft 300° 300° 6 kt METAR EDDS 180950Z AUTO 30006KT 270V360 9999 FEW012 SCT033 BKN040 06/03 Q1015 TEMPO SHRA
11:20
V
5 °C 10 km+ 3.300 ft 340° 340° 7 kt METAR EDDS 180920Z AUTO 34007KT 310V030 9999 FEW013 BKN033 OVC040 05/02 Q1015 NOSIG
10:50
M
5 °C 10 km+ 2.900 ft 330° 330° 3 kt METAR EDDS 180850Z AUTO 33003KT 260V050 9999 FEW014 SCT023 OVC029 05/02 Q1015 NOSIG
10:20
M
5 °C 10 km+ 2.300 ft 010° 010° 5 kt METAR EDDS 180820Z AUTO 01005KT 330V050 9999 VCSH SCT009 BKN023 OVC029 FEW///CB 05/02 Q1014 NOSIG
09:50
M
4 °C 10 km+ 2.000 ft 030° 030° 5 kt METAR EDDS 180750Z AUTO 03005KT 350V070 9999 VCSH FEW009 BKN020 OVC029 FEW///CB 04/02 Q1014 NOSIG
09:20
M
4 °C 10 km+ 2.000 ft 340° 340° 3 kt METAR EDDS 180720Z AUTO 34003KT 300V040 9999 FEW010 BKN020 04/02 Q1014 NOSIG
08:50
M
4 °C 10 km+ 1.900 ft 290° 290° 3 kt METAR EDDS 180650Z AUTO 29003KT 260V330 9999 -DZ FEW009 OVC019 04/02 Q1013 NOSIG
08:20
M
4 °C 10 km+ 1.600 ft 330° 330° 3 kt METAR EDDS 180620Z AUTO 33003KT 280V030 9999 -DZ FEW008 OVC016 04/02 Q1013 NOSIG
07:50
M
4 °C 10 km+ 1.600 ft 310° 310° 1 kt METAR EDDS 180550Z AUTO 31001KT 9999 -DZ FEW009 BKN016 04/01 Q1013 NOSIG
07:20
M
3 °C 10 km+ 1.600 ft 360° 360° 0 kt METAR EDDS 180520Z AUTO 00000KT 9999 -RA SCT009 BKN016 BKN042 03/01 Q1012 TEMPO BKN009
06:50
M
3 °C 10 km+ 2.200 ft Var Var 2 kt METAR EDDS 180450Z AUTO VRB02KT 9999 -RA SCT007 BKN022 BKN041 03/01 Q1012 TEMPO BKN008
06:20
I
3 °C 10 km+ 800 ft Var Var 2 kt METAR EDDS 180420Z AUTO VRB02KT 9999 -RADZ FEW003 BKN008 BKN013 03/01 Q1012 NOSIG
05:50
M
3 °C 9 km 1.300 ft 260° 260° 4 kt METAR EDDS 180350Z AUTO 26004KT 9000 -RADZ FEW007 BKN013 03/01 Q1011
05:20
M
3 °C 10 km+ 1.700 ft 230° 230° 3 kt METAR EDDS 180320Z AUTO 23003KT 150V290 9999 -RA BKN017 BKN024 OVC029 03/01 Q1011
04:50
M
3 °C 10 km+ 2.600 ft Var Var 2 kt METAR EDDS 180250Z AUTO VRB02KT 9999 -RA FEW012 SCT017 OVC026 03/01 Q1011
04:20
M
3 °C 10 km+ 2.200 ft Var Var 2 kt METAR EDDS 180220Z AUTO VRB02KT 9999 FEW015 BKN022 OVC029 03/01 Q1011
03:50
M
3 °C 10 km+ 2.300 ft Var Var 2 kt METAR EDDS 180150Z AUTO VRB02KT 9999 BKN023 OVC031 03/01 Q1011
03:20
M
3 °C 10 km+ 2.000 ft 210° 210° 3 kt METAR EDDS 180120Z AUTO 21003KT 160V280 9999 FEW013 BKN020 BKN027 03/01 Q1011
02:50
M
3 °C 10 km+ 2.600 ft 240° 240° 3 kt METAR EDDS 180050Z AUTO 24003KT 220V280 9999 SCT020 BKN026 BKN034 03/02 Q1011
02:20
M
3 °C 10 km+ 3.000 ft 360° 360° 0 kt METAR EDDS 180020Z AUTO 00000KT 9999 -RA SCT025 BKN030 BKN039 03/01 Q1011
01:50
V
3 °C 10 km+ 4.400 ft Var Var 1 kt METAR EDDS 172350Z AUTO VRB01KT 9999 SCT030 BKN044 03/01 Q1011
01:20
V
3 °C 10 km+ - Var Var 1 kt METAR EDDS 172320Z AUTO VRB01KT 9999 FEW036 03/01 Q1011
00:50
V
2 °C 10 km+ - Var Var 1 kt METAR EDDS 172250Z AUTO VRB01KT CAVOK 02/01 Q1011
00:20
V
2 °C 10 km+ - Var Var 1 kt METAR EDDS 172220Z AUTO VRB01KT CAVOK 02/01 Q1010

17 april 2024

Tijd Code Weer Temp. Zicht Plafond Wind METAR/SPECI
23:50
M
3 °C 10 km+ 2.000 ft Var Var 2 kt METAR EDDS 172150Z AUTO VRB02KT 9999 BKN020 03/01 Q1010
23:20
V
3 °C 10 km+ - 190° 190° 2 kt METAR EDDS 172120Z AUTO 19002KT 9999 FEW021 03/01 Q1011
22:50
V
3 °C 10 km+ - 180° 180° 2 kt METAR EDDS 172050Z AUTO 18002KT 9999 FEW047 03/01 Q1011
22:20
V
3 °C 10 km+ - Var Var 2 kt METAR EDDS 172020Z AUTO VRB02KT 9999 FEW036 SCT048 03/02 Q1010
21:50
V
3 °C 10 km+ - 360° 360° 0 kt METAR EDDS 171950Z AUTO 00000KT 9999 FEW011 03/01 Q1011 NOSIG
21:20
V
3 °C 10 km+ - Var Var 1 kt METAR EDDS 171920Z AUTO VRB01KT 9999 FEW009 03/01 Q1010 NOSIG
20:50
V
3 °C 10 km+ - 340° 340° 1 kt METAR EDDS 171850Z AUTO 34001KT 9999 FEW032 SCT046 03/01 Q1010 NOSIG
20:20
V
4 °C 10 km+ 4.900 ft 330° 330° 6 kt METAR EDDS 171820Z AUTO 33006KT 300V010 9999 FEW018 SCT035 BKN049 04/01 Q1010 NOSIG
19:50
V
4 °C 10 km+ 3.300 ft 330° 330° 9 kt METAR EDDS 171750Z AUTO 33009KT 300V360 9999 -RA FEW021 BKN033 BKN047 04/01 Q1010 RERA
19:20
V
5 °C 10 km+ - 330° 330° 11 kt METAR EDDS 171720Z AUTO 33011KT 9999 SCT049 05/01 Q1010 TEMPO SHRA
18:50
V
7 °C 10 km+ - 320° 320° 16 kt METAR EDDS 171650Z AUTO 32016KT 280V350 9999 FEW032 07/01 Q1009 TEMPO SHRA
18:20
V
8 °C 10 km+ - 250° 250° 9 kt METAR EDDS 171620Z AUTO 25009KT 200V290 9999 VCSH FEW027 FEW///CB 08/M00 Q1009 TEMPO SHRA
17:50
V
8 °C 10 km+ - 240° 240° 7 kt METAR EDDS 171550Z AUTO 24007KT 210V280 9999 FEW034 08/02 Q1009 TEMPO SHRA
17:20
V
8 °C 10 km+ 4.200 ft 250° 250° 9 kt METAR EDDS 171520Z AUTO 25009KT 210V290 9999 BKN042 08/02 Q1009 TEMPO SHRA
16:50
V
8 °C 10 km+ - 270° 270° 7 kt METAR EDDS 171450Z AUTO 27007KT 230V300 9999 SCT036 08/01 Q1009 NOSIG
16:20
V
8 °C 10 km+ - 250° 250° 9 kt METAR EDDS 171420Z AUTO 25009KT 220V280 CAVOK 08/03 Q1009 TEMPO SHRA
15:50
V
6 °C 10 km+ - 260° 260° 11 kt METAR EDDS 171350Z AUTO 26011KT 220V280 9999 FEW030 06/02 Q1009 TEMPO SHRA
15:20
V
5 °C 10 km+ 4.700 ft 260° 260° 14 kt METAR EDDS 171320Z AUTO 26014KT 9999 FEW022 SCT040 BKN047 05/02 Q1009 REUP TEMPO SHRA
14:50
V
7 °C 10 km+ 4.200 ft 300° 300° 12 kt METAR EDDS 171250Z AUTO 30012KT 9999 -RA SCT024 BKN042 07/02 Q1009 REUP TEMPO SHRA
14:20
V
7 °C 10 km+ 4.800 ft 310° 310° 7 kt METAR EDDS 171220Z AUTO 31007KT 270V330 9999 SCT020 SCT031 BKN048 07/03 Q1009 TEMPO SHRA
13:50
V
8 °C 10 km+ 3.500 ft 300° 300° 8 kt METAR EDDS 171150Z AUTO 30008KT 270V330 9999 SCT019 BKN035 08/03 Q1009 TEMPO SHRA
13:20
M
7 °C 10 km+ 1.500 ft 300° 300° 8 kt METAR EDDS 171120Z AUTO 30008KT 270V330 9999 BKN015 BKN023 BKN047 07/03 Q1009 TEMPO SHRA
12:50
M
6 °C 10 km+ 1.400 ft 320° 320° 6 kt METAR EDDS 171050Z AUTO 32006KT 290V350 9999 BKN014 BKN031 BKN043 06/03 Q1009 NOSIG
12:20
M
6 °C 10 km+ 1.300 ft 310° 310° 13 kt METAR EDDS 171020Z AUTO 31013KT 9999 -RA BKN013 BKN037 BKN044 06/03 Q1009 BECMG BKN020
11:50
M
5 °C 10 km+ 2.100 ft 310° 310° 15 kt METAR EDDS 170950Z AUTO 31015KT 9999 -RA SCT012 BKN021 BKN027 05/03 Q1009 TEMPO RA BKN012
11:20
M
6 °C 10 km+ 1.400 ft 300° 300° 6 kt METAR EDDS 170920Z AUTO 30006KT 260V340 9999 -RA BKN014 BKN024 BKN037 06/04 Q1009 TEMPO SHRA
10:50
M
5 °C 10 km+ 1.200 ft 270° 270° 7 kt METAR EDDS 170850Z AUTO 27007KT 9999 -DZ BKN012 BKN021 05/04 Q1009 TEMPO RADZ
10:20
M
5 °C 10 km+ 1.900 ft 300° 300° 7 kt METAR EDDS 170820Z AUTO 30007KT 270V330 9999 -RA FEW008 BKN019 OVC024 05/03 Q1009 RERA TEMPO BKN012
09:50
M
5 °C 10 km+ 1.600 ft 320° 320° 8 kt METAR EDDS 170750Z AUTO 32008KT 9999 -RA SCT009 BKN016 BKN022 05/03 Q1009 RERA TEMPO BKN008
09:20
M
5 °C 10 km+ 1.100 ft 310° 310° 9 kt METAR EDDS 170720Z AUTO 31009KT 9999 -RA FEW008 BKN011 BKN017 05/03 Q1009 TEMPO BKN008
08:50
M
5 °C 10 km+ 1.000 ft 260° 260° 6 kt METAR EDDS 170650Z AUTO 26006KT 9999 -RA BKN010 BKN018 05/03 Q1008 TEMPO RA
08:20
M
5 °C 10 km+ 2.900 ft 230° 230° 3 kt METAR EDDS 170620Z AUTO 23003KT 160V300 9999 SCT016 BKN029 BKN039 05/03 Q1008 TEMPO RA BKN012
07:50
M
4 °C 10 km+ 1.700 ft 230° 230° 3 kt METAR EDDS 170550Z AUTO 23003KT 170V290 9999 BKN017 BKN026 BKN046 04/02 Q1008 TEMPO RA
Wijziging doorgeven